sensor_id;sensor_type;location;lat;lon;timestamp;pressure;altitude;pressure_sealevel;temperature;humidity
29417;BME280;28421;51.030;4.006;2023-01-10T00:01:46;101455.72;;;5.77;76.87
29417;BME280;28421;51.030;4.006;2023-01-10T00:04:12;101365.63;;;5.26;76.63
29417;BME280;28421;51.030;4.006;2023-01-10T00:06:37;101437.41;;;5.72;76.87
29417;BME280;28421;51.030;4.006;2023-01-10T00:09:03;101422.03;;;5.65;77.02
29417;BME280;28421;51.030;4.006;2023-01-10T00:11:28;101449.78;;;5.73;76.62
29417;BME280;28421;51.030;4.006;2023-01-10T00:14:12;101439.88;;;5.64;76.55
29417;BME280;28421;51.030;4.006;2023-01-10T00:16:38;101460.09;;;5.67;76.58
29417;BME280;28421;51.030;4.006;2023-01-10T00:19:04;101418.56;;;5.53;76.86
29417;BME280;28421;51.030;4.006;2023-01-10T00:21:30;101467.56;;;5.84;76.68
29417;BME280;28421;51.030;4.006;2023-01-10T00:23:56;101442.25;;;5.67;76.71
29417;BME280;28421;51.030;4.006;2023-01-10T00:26:28;101448.66;;;5.76;77.36
29417;BME280;28421;51.030;4.006;2023-01-10T00:28:55;101470.97;;;5.86;76.50
29417;BME280;28421;51.030;4.006;2023-01-10T00:31:20;101485.16;;;5.87;76.57
29417;BME280;28421;51.030;4.006;2023-01-10T05:38:37;101757.84;;;3.74;83.61
29417;BME280;28421;51.030;4.006;2023-01-10T05:41:03;101714.72;;;3.44;83.58
29417;BME280;28421;51.030;4.006;2023-01-10T05:43:28;101771.25;;;3.73;83.89
29417;BME280;28421;51.030;4.006;2023-01-10T05:45:54;101761.25;;;3.64;83.75
29417;BME280;28421;51.030;4.006;2023-01-10T05:48:19;101756.09;;;3.48;83.91
29417;BME280;28421;51.030;4.006;2023-01-10T05:50:45;101729.28;;;3.26;84.33
29417;BME280;28421;51.030;4.006;2023-01-10T05:53:11;101749.38;;;3.30;84.04
29417;BME280;28421;51.030;4.006;2023-01-10T05:55:36;101773.97;;;3.33;84.46
29417;BME280;28421;51.030;4.006;2023-01-10T05:58:02;101796.63;;;3.52;84.69
29417;BME280;28421;51.030;4.006;2023-01-10T06:00:28;101792.13;;;3.39;84.45
29417;BME280;28421;51.030;4.006;2023-01-10T06:02:54;101747.84;;;3.13;84.95
29417;BME280;28421;51.030;4.006;2023-01-10T06:05:21;101746.69;;;3.17;84.92
29417;BME280;28421;51.030;4.006;2023-01-10T06:07:46;101779.69;;;3.40;84.96
29417;BME280;28421;51.030;4.006;2023-01-10T06:10:12;101773.84;;;3.35;84.48
29417;BME280;28421;51.030;4.006;2023-01-10T06:12:38;101781.41;;;3.28;84.43
29417;BME280;28421;51.030;4.006;2023-01-10T06:15:05;101771.63;;;3.29;84.71
29417;BME280;28421;51.030;4.006;2023-01-10T06:17:31;101767.34;;;3.26;84.47
29417;BME280;28421;51.030;4.006;2023-01-10T06:19:56;101778.97;;;3.38;84.79
29417;BME280;28421;51.030;4.006;2023-01-10T06:22:22;101745.59;;;3.07;84.13
29417;BME280;28421;51.030;4.006;2023-01-10T06:24:47;101782.66;;;3.35;84.70
29417;BME280;28421;51.030;4.006;2023-01-10T06:27:12;101760.63;;;3.20;84.15
29417;BME280;28421;51.030;4.006;2023-01-10T06:29:38;101790.63;;;3.35;84.06
29417;BME280;28421;51.030;4.006;2023-01-10T06:32:04;101777.84;;;3.28;84.10
29417;BME280;28421;51.030;4.006;2023-01-10T06:34:29;101795.31;;;3.32;84.67
29417;BME280;28421;51.030;4.006;2023-01-10T06:36:55;101724.84;;;2.86;84.38
29417;BME280;28421;51.030;4.006;2023-01-10T06:39:20;101763.34;;;3.06;84.53
29417;BME280;28421;51.030;4.006;2023-01-10T06:41:46;101752.78;;;2.92;84.55
29417;BME280;28421;51.030;4.006;2023-01-10T06:44:11;101737.75;;;2.78;84.93
29417;BME280;28421;51.030;4.006;2023-01-10T06:46:37;101780.06;;;3.08;84.94
29417;BME280;28421;51.030;4.006;2023-01-10T06:49:03;101828.78;;;3.21;84.64
29417;BME280;28421;51.030;4.006;2023-01-10T06:51:29;101824.50;;;3.19;84.80
29417;BME280;28421;51.030;4.006;2023-01-10T06:53:54;101765.25;;;2.77;85.14
29417;BME280;28421;51.030;4.006;2023-01-10T06:56:20;101772.47;;;2.75;85.69
29417;BME280;28421;51.030;4.006;2023-01-10T06:58:47;101842.38;;;3.17;85.46
29417;BME280;28421;51.030;4.006;2023-01-10T07:01:15;101772.38;;;2.77;85.54
29417;BME280;28421;51.030;4.006;2023-01-10T07:03:41;101780.03;;;2.81;85.62
29417;BME280;28421;51.030;4.006;2023-01-10T07:06:07;101832.53;;;3.05;85.56
29417;BME280;28421;51.030;4.006;2023-01-10T07:08:36;101844.25;;;3.15;85.74
29417;BME280;28421;51.030;4.006;2023-01-10T07:11:02;101842.19;;;3.20;85.71
29417;BME280;28421;51.030;4.006;2023-01-10T07:13:27;101829.06;;;3.17;84.88
29417;BME280;28421;51.030;4.006;2023-01-10T07:16:00;101831.28;;;3.10;85.63
29417;BME280;28421;51.030;4.006;2023-01-10T07:18:26;101803.25;;;2.92;85.54
29417;BME280;28421;51.030;4.006;2023-01-10T07:20:51;101836.50;;;3.12;85.43
29417;BME280;28421;51.030;4.006;2023-01-10T07:23:17;101837.66;;;3.08;85.55
29417;BME280;28421;51.030;4.006;2023-01-10T07:25:42;101789.63;;;2.84;85.55
29417;BME280;28421;51.030;4.006;2023-01-10T07:28:08;101821.59;;;3.09;85.92
29417;BME280;28421;51.030;4.006;2023-01-10T07:30:33;101845.19;;;3.28;85.43
29417;BME280;28421;51.030;4.006;2023-01-10T07:32:58;101856.44;;;3.32;85.74
29417;BME280;28421;51.030;4.006;2023-01-10T07:35:25;101804.81;;;3.09;85.31
29417;BME280;28421;51.030;4.006;2023-01-10T07:37:51;101787.97;;;2.95;85.37
29417;BME280;28421;51.030;4.006;2023-01-10T07:40:17;101843.72;;;3.37;85.43
29417;BME280;28421;51.030;4.006;2023-01-10T07:42:42;101848.88;;;3.26;85.02
29417;BME280;28421;51.030;4.006;2023-01-10T07:45:08;101847.22;;;3.37;85.19
29417;BME280;28421;51.030;4.006;2023-01-10T07:47:33;101871.66;;;3.57;85.30
29417;BME280;28421;51.030;4.006;2023-01-10T07:49:59;101844.81;;;3.47;84.91
29417;BME280;28421;51.030;4.006;2023-01-10T07:52:24;101847.88;;;3.41;85.26
29417;BME280;28421;51.030;4.006;2023-01-10T07:54:50;101855.91;;;3.54;85.22
29417;BME280;28421;51.030;4.006;2023-01-10T07:57:22;101842.81;;;3.51;85.43
29417;BME280;28421;51.030;4.006;2023-01-10T07:59:48;101817.78;;;3.40;84.67
29417;BME280;28421;51.030;4.006;2023-01-10T08:02:13;101834.63;;;3.54;84.69
29417;BME280;28421;51.030;4.006;2023-01-10T08:04:39;101809.50;;;3.45;84.42
29417;BME280;28421;51.030;4.006;2023-01-10T08:07:04;101795.66;;;3.40;84.80
29417;BME280;28421;51.030;4.006;2023-01-10T08:09:30;101826.03;;;3.63;84.68
29417;BME280;28421;51.030;4.006;2023-01-10T08:11:55;101860.13;;;3.83;84.81
29417;BME280;28421;51.030;4.006;2023-01-10T08:14:21;101858.09;;;3.74;84.49
29417;BME280;28421;51.030;4.006;2023-01-10T08:16:46;101857.78;;;3.79;84.34
29417;BME280;28421;51.030;4.006;2023-01-10T08:19:12;101823.78;;;3.57;84.58
29417;BME280;28421;51.030;4.006;2023-01-10T08:21:42;101850.31;;;3.71;84.75
29417;BME280;28421;51.030;4.006;2023-01-10T08:24:08;101868.44;;;3.91;84.81
29417;BME280;28421;51.030;4.006;2023-01-10T08:26:33;101838.38;;;3.77;84.46
29417;BME280;28421;51.030;4.006;2023-01-10T08:28:59;101866.81;;;3.89;84.61
29417;BME280;28421;51.030;4.006;2023-01-10T08:31:25;101869.72;;;3.98;85.13
29417;BME280;28421;51.030;4.006;2023-01-10T08:33:50;101798.38;;;3.65;84.50
29417;BME280;28421;51.030;4.006;2023-01-10T08:36:17;101765.28;;;3.57;84.49
29417;BME280;28421;51.030;4.006;2023-01-10T08:38:44;101855.59;;;4.11;84.48
29417;BME280;28421;51.030;4.006;2023-01-10T08:41:10;101773.28;;;3.69;84.09
29417;BME280;28421;51.030;4.006;2023-01-10T08:43:36;101824.56;;;3.97;84.11
29417;BME280;28421;51.030;4.006;2023-01-10T08:46:01;101841.31;;;4.12;84.39
29417;BME280;28421;51.030;4.006;2023-01-10T08:48:27;101858.25;;;4.23;83.89
29417;BME280;28421;51.030;4.006;2023-01-10T08:50:52;101792.44;;;3.87;84.36
29417;BME280;28421;51.030;4.006;2023-01-10T08:53:17;101809.47;;;3.97;84.28
29417;BME280;28421;51.030;4.006;2023-01-10T08:55:43;101842.16;;;4.25;84.28
29417;BME280;28421;51.030;4.006;2023-01-10T08:58:09;101865.91;;;4.41;84.07
29417;BME280;28421;51.030;4.006;2023-01-10T09:00:35;101801.59;;;4.09;84.07
29417;BME280;28421;51.030;4.006;2023-01-10T09:03:00;101792.97;;;4.18;83.59
29417;BME280;28421;51.030;4.006;2023-01-10T09:05:26;101805.53;;;4.29;83.75
29417;BME280;28421;51.030;4.006;2023-01-10T09:07:51;101795.22;;;4.24;83.59
29417;BME280;28421;51.030;4.006;2023-01-10T09:10:17;101830.44;;;4.53;83.42
29417;BME280;28421;51.030;4.006;2023-01-10T09:12:43;101829.47;;;4.54;83.12
29417;BME280;28421;51.030;4.006;2023-01-10T09:15:28;101776.13;;;4.30;83.26
29417;BME280;28421;51.030;4.006;2023-01-10T09:17:55;101831.38;;;4.65;83.35
29417;BME280;28421;51.030;4.006;2023-01-10T09:20:24;101818.56;;;4.70;83.37
29417;BME280;28421;51.030;4.006;2023-01-10T09:22:50;101767.56;;;4.51;83.38
29417;BME280;28421;51.030;4.006;2023-01-10T09:25:15;101809.75;;;4.93;82.96
29417;BME280;28421;51.030;4.006;2023-01-10T09:27:40;101784.44;;;4.75;82.59
29417;BME280;28421;51.030;4.006;2023-01-10T09:30:07;101809.88;;;4.92;82.85
29417;BME280;28421;51.030;4.006;2023-01-10T09:32:32;101810.16;;;5.00;82.65
29417;BME280;28421;51.030;4.006;2023-01-10T09:34:58;101803.47;;;4.94;82.54
29417;BME280;28421;51.030;4.006;2023-01-10T09:37:23;101782.72;;;4.87;82.68
29417;BME280;28421;51.030;4.006;2023-01-10T09:39:49;101802.66;;;5.05;82.54
29417;BME280;28421;51.030;4.006;2023-01-10T09:45:59;101801.31;;;5.23;81.94
29417;BME280;28421;51.030;4.006;2023-01-10T09:53:54;101753.69;;;4.95;81.82
29417;BME280;28421;51.030;4.006;2023-01-10T09:56:21;101751.03;;;4.95;82.06
29417;BME280;28421;51.030;4.006;2023-01-10T09:58:47;101780.63;;;5.27;81.81
29417;BME280;28421;51.030;4.006;2023-01-10T10:01:18;101791.66;;;5.34;81.59
29417;BME280;28421;51.030;4.006;2023-01-10T10:03:53;101787.06;;;5.36;81.57
29417;BME280;28421;51.030;4.006;2023-01-10T10:06:20;101765.03;;;5.45;81.37
29417;BME280;28421;51.030;4.006;2023-01-10T10:08:46;101770.16;;;5.59;81.02
29417;BME280;28421;51.030;4.006;2023-01-10T10:19:41;101720.22;;;5.61;80.10
29417;BME280;28421;51.030;4.006;2023-01-10T10:31:05;101744.31;;;6.17;79.17
29417;BME280;28421;51.030;4.006;2023-01-10T10:33:59;101743.47;;;6.28;79.32
29417;BME280;28421;51.030;4.006;2023-01-10T10:36:42;101718.09;;;6.22;79.31
29417;BME280;28421;51.030;4.006;2023-01-10T10:39:14;101689.09;;;6.07;78.94
29417;BME280;28421;51.030;4.006;2023-01-10T10:41:43;101713.94;;;6.30;79.05
29417;BME280;28421;51.030;4.006;2023-01-10T10:46:51;101729.50;;;6.47;78.74
29417;BME280;28421;51.030;4.006;2023-01-10T10:49:37;101710.91;;;6.34;79.18
29417;BME280;28421;51.030;4.006;2023-01-10T10:52:24;101663.97;;;6.09;78.83
29417;BME280;28421;51.030;4.006;2023-01-10T10:54:51;101689.19;;;6.39;78.70
29417;BME280;28421;51.030;4.006;2023-01-10T10:57:18;101699.22;;;6.58;78.47
29417;BME280;28421;51.030;4.006;2023-01-10T10:59:46;101698.00;;;6.51;78.55
29417;BME280;28421;51.030;4.006;2023-01-10T11:02:30;101701.19;;;6.56;78.63
29417;BME280;28421;51.030;4.006;2023-01-10T11:04:59;101656.69;;;6.22;78.47
29417;BME280;28421;51.030;4.006;2023-01-10T11:07:27;101697.84;;;6.63;78.22
29417;BME280;28421;51.030;4.006;2023-01-10T11:09:56;101635.44;;;6.21;78.40
29417;BME280;28421;51.030;4.006;2023-01-10T11:12:28;101649.47;;;6.34;78.04
29417;BME280;28421;51.030;4.006;2023-01-10T11:14:55;101653.25;;;6.43;77.79
29417;BME280;28421;51.030;4.006;2023-01-10T11:17:26;101693.34;;;6.75;77.91
29417;BME280;28421;51.030;4.006;2023-01-10T11:19:56;101692.31;;;6.87;77.68
29417;BME280;28421;51.030;4.006;2023-01-10T11:22:22;101648.59;;;6.56;77.39
29417;BME280;28421;51.030;4.006;2023-01-10T11:27:19;101631.97;;;6.53;77.23
29417;BME280;28421;51.030;4.006;2023-01-10T11:29:48;101692.91;;;6.91;77.38
29417;BME280;28421;51.030;4.006;2023-01-10T11:32:22;101650.84;;;6.72;77.82
29417;BME280;28421;51.030;4.006;2023-01-10T11:34:57;101668.84;;;6.91;77.32
29417;BME280;28421;51.030;4.006;2023-01-10T11:37:29;101639.25;;;6.83;77.20
29417;BME280;28421;51.030;4.006;2023-01-10T11:42:42;101620.06;;;6.78;77.07
29417;BME280;28421;51.030;4.006;2023-01-10T11:47:42;101663.28;;;7.15;76.75
29417;BME280;28421;51.030;4.006;2023-01-10T11:50:09;101645.00;;;6.99;77.03
29417;BME280;28421;51.030;4.006;2023-01-10T11:52:42;101612.50;;;6.83;76.98
29417;BME280;28421;51.030;4.006;2023-01-10T11:55:09;101655.00;;;7.18;77.48
29417;BME280;28421;51.030;4.006;2023-01-10T11:57:35;101615.84;;;6.96;77.64
29417;BME280;28421;51.030;4.006;2023-01-10T12:00:06;101644.81;;;7.12;78.08
29417;BME280;28421;51.030;4.006;2023-01-10T12:02:41;101600.84;;;6.84;78.76
29417;BME280;28421;51.030;4.006;2023-01-10T12:05:09;101610.03;;;6.91;79.26
29417;BME280;28421;51.030;4.006;2023-01-10T12:07:59;101644.22;;;7.08;79.26
29417;BME280;28421;51.030;4.006;2023-01-10T12:10:27;101579.75;;;6.81;79.43
29417;BME280;28421;51.030;4.006;2023-01-10T12:13:14;101626.09;;;7.12;79.59
29417;BME280;28421;51.030;4.006;2023-01-10T12:15:40;101620.94;;;6.99;80.55
29417;BME280;28421;51.030;4.006;2023-01-10T12:18:06;101595.00;;;6.90;80.54
29417;BME280;28421;51.030;4.006;2023-01-10T12:20:47;101577.50;;;6.86;80.31
29417;BME280;28421;51.030;4.006;2023-01-10T12:23:19;101562.72;;;6.82;80.66
29417;BME280;28421;51.030;4.006;2023-01-10T12:25:46;101530.94;;;6.67;80.67
29417;BME280;28421;51.030;4.006;2023-01-10T12:28:17;101597.72;;;7.00;80.76
29417;BME280;28421;51.030;4.006;2023-01-10T12:30:46;101565.13;;;6.85;81.62
29417;BME280;28421;51.030;4.006;2023-01-10T12:33:35;101548.81;;;6.88;81.67
29417;BME280;28421;51.030;4.006;2023-01-10T12:36:19;101577.16;;;7.21;81.37
29417;BME280;28421;51.030;4.006;2023-01-10T12:39:05;101573.19;;;7.15;81.34
29417;BME280;28421;51.030;4.006;2023-01-10T12:44:46;101532.00;;;6.97;81.68
29417;BME280;28421;51.030;4.006;2023-01-10T12:47:47;101470.91;;;6.71;81.98
29417;BME280;28421;51.030;4.006;2023-01-10T12:50:20;101529.41;;;7.16;81.84
29417;BME280;28421;51.030;4.006;2023-01-10T12:55:55;101438.09;;;6.60;82.36
29417;BME280;28421;51.030;4.006;2023-01-10T12:58:37;101442.91;;;6.66;82.32
29417;BME280;28421;51.030;4.006;2023-01-10T13:01:12;101466.72;;;6.69;82.35
29417;BME280;28421;51.030;4.006;2023-01-10T13:03:39;101471.41;;;6.77;82.32
29417;BME280;28421;51.030;4.006;2023-01-10T13:06:05;101398.50;;;6.44;82.46
29417;BME280;28421;51.030;4.006;2023-01-10T13:08:35;101491.19;;;6.95;82.57
29417;BME280;28421;51.030;4.006;2023-01-10T13:11:02;101429.75;;;6.53;83.13
29417;BME280;28421;51.030;4.006;2023-01-10T13:19:21;101468.81;;;6.96;83.34
29417;BME280;28421;51.030;4.006;2023-01-10T13:21:47;101374.03;;;6.39;83.67
29417;BME280;28421;51.030;4.006;2023-01-10T13:24:23;101446.38;;;6.87;83.76
29417;BME280;28421;51.030;4.006;2023-01-10T13:27:00;101381.22;;;6.48;83.86
29417;BME280;28421;51.030;4.006;2023-01-10T13:29:40;101371.47;;;6.37;83.72
29417;BME280;28421;51.030;4.006;2023-01-10T13:32:24;101436.84;;;6.85;84.12
29417;BME280;28421;51.030;4.006;2023-01-10T13:34:51;101384.59;;;6.50;84.71
29417;BME280;28421;51.030;4.006;2023-01-10T13:37:26;101419.78;;;6.76;84.59
29417;BME280;28421;51.030;4.006;2023-01-10T13:39:57;101372.66;;;6.54;84.76
29417;BME280;28421;51.030;4.006;2023-01-10T13:42:28;101419.94;;;6.84;85.21
29417;BME280;28421;51.030;4.006;2023-01-10T13:52:47;101370.06;;;6.64;86.70
29417;BME280;28421;51.030;4.006;2023-01-10T13:55:28;101302.59;;;6.41;86.66
29417;BME280;28421;51.030;4.006;2023-01-10T13:57:56;101315.25;;;6.39;87.46
29417;BME280;28421;51.030;4.006;2023-01-10T14:00:24;101351.63;;;6.61;87.14
29417;BME280;28421;51.030;4.006;2023-01-10T14:03:45;101347.53;;;6.57;87.58
29417;BME280;28421;51.030;4.006;2023-01-10T14:08:54;101321.16;;;6.42;87.77
29417;BME280;28421;51.030;4.006;2023-01-10T14:11:22;101310.88;;;6.38;88.43
29417;BME280;28421;51.030;4.006;2023-01-10T14:13:52;101272.00;;;6.14;88.43
29417;BME280;28421;51.030;4.006;2023-01-10T14:16:34;101278.63;;;6.20;88.11
29417;BME280;28421;51.030;4.006;2023-01-10T14:19:02;101276.53;;;6.23;88.37
29417;BME280;28421;51.030;4.006;2023-01-10T14:21:30;101296.56;;;6.39;88.50
29417;BME280;28421;51.030;4.006;2023-01-10T14:23:59;101248.91;;;6.13;88.48
29417;BME280;28421;51.030;4.006;2023-01-10T14:26:36;101298.00;;;6.53;88.61
29417;BME280;28421;51.030;4.006;2023-01-10T14:29:08;101307.56;;;6.55;88.67
29417;BME280;28421;51.030;4.006;2023-01-10T14:31:42;101272.91;;;6.34;88.62
29417;BME280;28421;51.030;4.006;2023-01-10T14:34:15;101264.19;;;6.32;88.78
29417;BME280;28421;51.030;4.006;2023-01-10T14:36:49;101301.69;;;6.52;88.73
29417;BME280;28421;51.030;4.006;2023-01-10T14:39:18;101267.84;;;6.31;88.57
29417;BME280;28421;51.030;4.006;2023-01-10T14:41:46;101242.34;;;6.17;88.99
29417;BME280;28421;51.030;4.006;2023-01-10T14:46:54;101255.78;;;6.37;89.63
29417;BME280;28421;51.030;4.006;2023-01-10T14:49:33;101274.56;;;6.56;90.03
29417;BME280;28421;51.030;4.006;2023-01-10T14:54:40;101267.38;;;6.57;90.37
29417;BME280;28421;51.030;4.006;2023-01-10T14:57:22;101229.47;;;6.32;90.61
29417;BME280;28421;51.030;4.006;2023-01-10T14:59:49;101214.13;;;6.25;90.86
29417;BME280;28421;51.030;4.006;2023-01-10T15:02:23;101255.53;;;6.50;91.03
29417;BME280;28421;51.030;4.006;2023-01-10T15:07:20;101219.28;;;6.57;91.45
29417;BME280;28421;51.030;4.006;2023-01-10T15:09:49;101214.63;;;6.59;91.29
29417;BME280;28421;51.030;4.006;2023-01-10T15:12:15;101155.66;;;6.21;91.41
29417;BME280;28421;51.030;4.006;2023-01-10T15:14:41;101203.94;;;6.49;91.34
29417;BME280;28421;51.030;4.006;2023-01-10T15:17:11;101219.13;;;6.58;91.70
29417;BME280;28421;51.030;4.006;2023-01-10T15:19:42;101180.47;;;6.43;92.16
29417;BME280;28421;51.030;4.006;2023-01-10T15:22:35;101214.94;;;6.65;92.05
29417;BME280;28421;51.030;4.006;2023-01-10T15:27:46;101207.91;;;6.64;92.44
29417;BME280;28421;51.030;4.006;2023-01-10T15:30:41;101135.59;;;6.27;92.35
29417;BME280;28421;51.030;4.006;2023-01-10T15:33:15;101185.28;;;6.68;92.48
29417;BME280;28421;51.030;4.006;2023-01-10T15:35:43;101195.41;;;6.75;92.35
29417;BME280;28421;51.030;4.006;2023-01-10T15:38:19;101138.25;;;6.37;92.45
29417;BME280;28421;51.030;4.006;2023-01-10T15:40:54;101169.53;;;6.65;92.49
29417;BME280;28421;51.030;4.006;2023-01-10T15:43:24;101173.59;;;6.69;92.37
29417;BME280;28421;51.030;4.006;2023-01-10T15:45:50;101145.31;;;6.47;92.23
29417;BME280;28421;51.030;4.006;2023-01-10T15:48:33;101120.28;;;6.39;92.23
29417;BME280;28421;51.030;4.006;2023-01-10T15:51:26;101167.16;;;6.82;92.04
29417;BME280;28421;51.030;4.006;2023-01-10T15:54:02;101187.00;;;6.89;92.06
29417;BME280;28421;51.030;4.006;2023-01-10T15:56:47;101119.19;;;6.51;91.99
29417;BME280;28421;51.030;4.006;2023-01-10T15:59:28;101146.03;;;6.69;91.86
29417;BME280;28421;51.030;4.006;2023-01-10T16:02:02;101154.78;;;6.90;91.52
29417;BME280;28421;51.030;4.006;2023-01-10T16:04:33;101143.25;;;6.80;91.64
29417;BME280;28421;51.030;4.006;2023-01-10T16:07:13;101139.31;;;6.84;91.69
29417;BME280;28421;51.030;4.006;2023-01-10T16:09:41;101147.75;;;6.89;91.50
29417;BME280;28421;51.030;4.006;2023-01-10T16:12:23;101151.53;;;6.96;91.02
29417;BME280;28421;51.030;4.006;2023-01-10T16:15:19;101169.09;;;7.09;91.04
29417;BME280;28421;51.030;4.006;2023-01-10T16:17:45;101109.75;;;6.86;90.88
29417;BME280;28421;51.030;4.006;2023-01-10T16:20:19;101174.16;;;7.21;90.81
29417;BME280;28421;51.030;4.006;2023-01-10T16:22:46;101174.72;;;7.25;90.64
29417;BME280;28421;51.030;4.006;2023-01-10T16:25:33;101143.66;;;7.14;90.64
29417;BME280;28421;51.030;4.006;2023-01-10T16:27:59;101115.50;;;7.01;90.44
29417;BME280;28421;51.030;4.006;2023-01-10T16:30:30;101130.84;;;7.18;90.53
29417;BME280;28421;51.030;4.006;2023-01-10T16:32:57;101152.06;;;7.39;90.09
29417;BME280;28421;51.030;4.006;2023-01-10T16:35:24;101154.56;;;7.40;90.18
29417;BME280;28421;51.030;4.006;2023-01-10T16:37:55;101149.66;;;7.36;89.89
29417;BME280;28421;51.030;4.006;2023-01-10T16:40:26;101140.34;;;7.40;89.89
29417;BME280;28421;51.030;4.006;2023-01-10T16:42:53;101149.91;;;7.52;89.86
29417;BME280;28421;51.030;4.006;2023-01-10T16:45:37;101144.00;;;7.48;89.63
29417;BME280;28421;51.030;4.006;2023-01-10T16:48:03;101139.09;;;7.44;89.72
29417;BME280;28421;51.030;4.006;2023-01-10T16:50:28;101139.09;;;7.44;89.71
29417;BME280;28421;51.030;4.006;2023-01-10T16:52:54;101136.53;;;7.52;90.02
29417;BME280;28421;51.030;4.006;2023-01-10T16:55:23;101096.88;;;7.28;89.47
29417;BME280;28421;51.030;4.006;2023-01-10T16:57:50;101116.97;;;7.52;89.68
29417;BME280;28421;51.030;4.006;2023-01-10T17:00:17;101144.78;;;7.68;89.54
29417;BME280;28421;51.030;4.006;2023-01-10T17:02:42;101109.50;;;7.55;89.52
29417;BME280;28421;51.030;4.006;2023-01-10T17:05:11;101113.41;;;7.61;88.95
29417;BME280;28421;51.030;4.006;2023-01-10T17:07:36;101086.25;;;7.46;89.54
29417;BME280;28421;51.030;4.006;2023-01-10T17:10:02;101093.84;;;7.60;89.42
29417;BME280;28421;51.030;4.006;2023-01-10T17:12:33;101086.38;;;7.54;89.38
29417;BME280;28421;51.030;4.006;2023-01-10T17:15:01;101092.56;;;7.64;89.44
29417;BME280;28421;51.030;4.006;2023-01-10T17:17:29;101077.50;;;7.54;89.29
29417;BME280;28421;51.030;4.006;2023-01-10T17:19:54;101081.00;;;7.64;89.56
29417;BME280;28421;51.030;4.006;2023-01-10T17:22:20;101114.28;;;7.89;89.56
29417;BME280;28421;51.030;4.006;2023-01-10T17:24:46;101054.38;;;7.62;89.87
29417;BME280;28421;51.030;4.006;2023-01-10T17:27:11;101069.56;;;7.71;90.20
29417;BME280;28421;51.030;4.006;2023-01-10T17:29:37;101043.00;;;7.60;90.47
29417;BME280;28421;51.030;4.006;2023-01-10T17:32:04;101067.56;;;7.73;90.32
29417;BME280;28421;51.030;4.006;2023-01-10T17:34:30;101081.09;;;8.00;90.17
29417;BME280;28421;51.030;4.006;2023-01-10T17:37:02;101079.72;;;7.95;90.14
29417;BME280;28421;51.030;4.006;2023-01-10T17:39:27;101066.63;;;7.92;90.12
29417;BME280;28421;51.030;4.006;2023-01-10T17:41:53;101085.13;;;8.13;90.10
29417;BME280;28421;51.030;4.006;2023-01-10T17:44:18;101033.25;;;7.87;89.51
29417;BME280;28421;51.030;4.006;2023-01-10T17:46:43;101015.69;;;7.84;89.71
29417;BME280;28421;51.030;4.006;2023-01-10T17:49:09;101050.88;;;8.07;89.76
29417;BME280;28421;51.030;4.006;2023-01-10T17:51:34;101015.69;;;7.84;89.62
29417;BME280;28421;51.030;4.006;2023-01-10T17:54:00;101028.78;;;8.05;89.75
29417;BME280;28421;51.030;4.006;2023-01-10T17:56:25;101063.44;;;8.25;89.70
29417;BME280;28421;51.030;4.006;2023-01-10T17:58:51;101007.56;;;7.94;89.92
29417;BME280;28421;51.030;4.006;2023-01-10T18:01:19;101009.50;;;8.02;89.94
29417;BME280;28421;51.030;4.006;2023-01-10T18:03:45;101023.66;;;8.12;89.72
29417;BME280;28421;51.030;4.006;2023-01-10T18:06:11;101026.13;;;8.23;89.46
29417;BME280;28421;51.030;4.006;2023-01-10T18:08:36;101008.38;;;8.22;89.34
29417;BME280;28421;51.030;4.006;2023-01-10T18:11:02;101045.97;;;8.48;89.27
29417;BME280;28421;51.030;4.006;2023-01-10T18:13:28;101005.59;;;8.32;89.33
29417;BME280;28421;51.030;4.006;2023-01-10T18:15:57;101043.28;;;8.66;89.23
29417;BME280;28421;51.030;4.006;2023-01-10T18:18:26;101030.22;;;8.63;89.04
29417;BME280;28421;51.030;4.006;2023-01-10T18:20:52;101018.78;;;8.61;88.91
29417;BME280;28421;51.030;4.006;2023-01-10T18:23:20;101011.09;;;8.66;88.82
29417;BME280;28421;51.030;4.006;2023-01-10T18:25:56;101038.16;;;8.73;88.75
29417;BME280;28421;51.030;4.006;2023-01-10T18:28:26;101044.88;;;8.77;88.74
29417;BME280;28421;51.030;4.006;2023-01-10T18:30:52;100997.16;;;8.62;88.73
29417;BME280;28421;51.030;4.006;2023-01-10T18:33:18;100978.50;;;8.53;88.71
29417;BME280;28421;51.030;4.006;2023-01-10T18:35:44;101020.13;;;8.83;88.21
29417;BME280;28421;51.030;4.006;2023-01-10T18:38:11;101009.34;;;8.75;88.52
29417;BME280;28421;51.030;4.006;2023-01-10T18:40:40;101029.69;;;8.85;88.71
29417;BME280;28421;51.030;4.006;2023-01-10T18:43:06;101030.28;;;8.97;88.58
29417;BME280;28421;51.030;4.006;2023-01-10T18:45:45;101016.56;;;9.00;88.41
29417;BME280;28421;51.030;4.006;2023-01-10T18:48:11;100932.59;;;8.48;88.40
29417;BME280;28421;51.030;4.006;2023-01-10T18:50:40;101003.31;;;8.99;88.57
29417;BME280;28421;51.030;4.006;2023-01-10T18:53:06;100998.16;;;9.05;88.47
29417;BME280;28421;51.030;4.006;2023-01-10T18:55:31;100998.16;;;9.05;88.44
29417;BME280;28421;51.030;4.006;2023-01-10T18:57:57;100994.78;;;9.03;88.29
29417;BME280;28421;51.030;4.006;2023-01-10T19:00:23;100957.00;;;8.88;88.29
29417;BME280;28421;51.030;4.006;2023-01-10T19:02:48;101008.47;;;9.18;87.95
29417;BME280;28421;51.030;4.006;2023-01-10T19:05:14;100990.16;;;9.13;87.93
29417;BME280;28421;51.030;4.006;2023-01-10T19:07:39;100971.53;;;9.12;87.90
29417;BME280;28421;51.030;4.006;2023-01-10T19:10:05;101007.84;;;9.32;87.77
29417;BME280;28421;51.030;4.006;2023-01-10T19:12:31;100987.22;;;9.33;87.47
29417;BME280;28421;51.030;4.006;2023-01-10T19:14:57;100988.97;;;9.42;87.80
29417;BME280;28421;51.030;4.006;2023-01-10T19:17:32;100942.06;;;9.20;87.34
29417;BME280;28421;51.030;4.006;2023-01-10T19:23:49;100971.16;;;9.41;87.50
29417;BME280;28421;51.030;4.006;2023-01-10T19:26:35;100949.19;;;9.37;87.76
29417;BME280;28421;51.030;4.006;2023-01-10T19:29:05;100988.00;;;9.51;87.77
29417;BME280;28421;51.030;4.006;2023-01-10T19:31:33;100928.50;;;9.21;88.05